createdAt,value
2023-03-14T00:00:01.477Z,43.70
2023-03-14T00:02:29.360Z,43.60
2023-03-14T00:04:58.651Z,44.85
2023-03-14T00:07:26.458Z,48.60
2023-03-14T00:09:54.376Z,43.72
2023-03-14T00:12:22.200Z,44.08
2023-03-14T00:14:49.992Z,43.90
2023-03-14T00:17:17.762Z,43.90
2023-03-14T00:19:45.559Z,44.00
2023-03-14T00:22:14.749Z,42.60
2023-03-14T00:24:42.625Z,44.65
2023-03-14T00:27:10.408Z,43.50
2023-03-14T00:29:38.226Z,43.88
2023-03-14T00:32:06.382Z,43.67
2023-03-14T00:34:34.765Z,44.00
2023-03-14T00:37:02.562Z,43.53
2023-03-14T00:39:31.723Z,44.55
2023-03-14T00:41:59.518Z,43.60
2023-03-14T00:44:27.609Z,43.38
2023-03-14T00:46:55.607Z,43.63
2023-03-14T00:49:23.509Z,44.88
2023-03-14T00:51:52.356Z,43.58
2023-03-14T00:54:20.494Z,43.60
2023-03-14T00:56:49.918Z,44.13
2023-03-14T00:59:18.330Z,44.20
2023-03-14T01:01:46.343Z,43.70
2023-03-14T01:04:14.208Z,44.15
2023-03-14T01:06:42.044Z,43.20
2023-03-14T01:09:09.896Z,44.45
2023-03-14T01:11:38.422Z,43.90
2023-03-14T01:14:07.706Z,43.33
2023-03-14T01:16:37.028Z,43.88
2023-03-14T01:19:05.363Z,44.60
2023-03-14T01:21:34.978Z,42.63
2023-03-14T01:24:05.343Z,42.80
2023-03-14T01:26:34.881Z,43.60
2023-03-14T01:29:03.381Z,46.58
2023-03-14T01:31:32.606Z,42.80
2023-03-14T01:34:00.492Z,43.63
2023-03-14T01:36:30.416Z,44.05
2023-03-14T01:38:59.241Z,43.72
2023-03-14T01:41:28.607Z,43.40
2023-03-14T01:43:56.492Z,43.50
2023-03-14T01:46:33.927Z,44.30
2023-03-14T01:49:10.769Z,43.38
2023-03-14T01:51:44.375Z,42.72
2023-03-14T01:54:18.083Z,42.20
2023-03-14T01:56:49.413Z,44.40
2023-03-14T01:59:17.465Z,43.90
2023-03-14T02:01:49.252Z,42.20
2023-03-14T02:04:19.952Z,43.50
2023-03-14T02:06:53.314Z,42.50
2023-03-14T02:09:21.891Z,43.23
2023-03-14T02:11:51.155Z,42.95
2023-03-14T02:14:30.029Z,43.00
2023-03-14T02:16:59.975Z,43.42
2023-03-14T02:19:39.702Z,44.33
2023-03-14T02:22:11.054Z,42.10
2023-03-14T02:24:48.727Z,42.50
2023-03-14T02:27:19.270Z,42.35
2023-03-14T02:29:52.659Z,41.80
2023-03-14T02:32:22.695Z,42.78
2023-03-14T02:34:54.417Z,42.20
2023-03-14T02:37:25.265Z,42.20
2023-03-14T02:39:53.208Z,42.50
2023-03-14T02:42:23.420Z,42.27
2023-03-14T02:44:54.434Z,43.10
2023-03-14T02:47:28.243Z,43.20
2023-03-14T02:50:01.051Z,42.78
2023-03-14T02:52:29.150Z,43.00
2023-03-14T02:54:57.010Z,42.83
2023-03-14T02:57:26.270Z,42.92
2023-03-14T02:59:54.121Z,43.10
2023-03-14T03:02:21.938Z,43.60
2023-03-14T03:04:49.722Z,43.65
2023-03-14T03:07:17.502Z,41.97
2023-03-14T03:09:45.306Z,42.53
2023-03-14T03:12:13.336Z,42.22
2023-03-14T03:14:42.535Z,43.72
2023-03-14T03:17:10.348Z,43.70
2023-03-14T03:19:38.229Z,43.57
2023-03-14T03:22:06.048Z,42.40
2023-03-14T03:24:33.877Z,42.90
2023-03-14T03:27:01.661Z,44.15
2023-03-14T03:29:29.489Z,44.30
2023-03-14T03:31:58.682Z,43.53
2023-03-14T03:34:26.460Z,44.50
2023-03-14T03:36:54.239Z,43.40
2023-03-14T03:39:22.001Z,45.38
2023-03-14T03:41:50.061Z,42.78
2023-03-14T03:44:17.853Z,42.90
2023-03-14T03:46:45.665Z,42.38
2023-03-14T03:49:14.826Z,41.43
2023-03-14T03:51:42.663Z,39.87
2023-03-14T03:54:10.472Z,39.87
2023-03-14T03:56:38.292Z,39.10
2023-03-14T03:59:06.076Z,38.77
2023-03-14T04:01:33.896Z,37.93
2023-03-14T04:04:01.840Z,42.53
2023-03-14T04:06:31.662Z,39.33
2023-03-14T04:08:59.549Z,39.30
2023-03-14T04:11:27.364Z,40.60
2023-03-14T04:13:55.173Z,38.33
2023-03-14T04:16:24.992Z,40.87
2023-03-14T04:18:53.373Z,41.63
2023-03-14T04:21:21.439Z,38.97
2023-03-14T04:23:50.644Z,38.37
2023-03-14T04:26:18.572Z,40.43
2023-03-14T04:28:46.477Z,46.20
2023-03-14T04:31:15.815Z,39.00
2023-03-14T04:33:45.693Z,41.27
2023-03-14T04:36:14.089Z,38.40
2023-03-14T04:38:42.363Z,45.83
2023-03-14T04:41:11.621Z,37.67
2023-03-14T04:43:39.487Z,37.83
2023-03-14T04:46:07.861Z,40.80
2023-03-14T04:48:35.690Z,37.10
2023-03-14T04:51:03.530Z,37.90
2023-03-14T04:53:33.040Z,38.20
2023-03-14T04:56:01.040Z,37.73
2023-03-14T04:58:30.351Z,38.83
2023-03-14T05:01:03.112Z,38.33
2023-03-14T05:03:30.911Z,37.97
2023-03-14T05:05:59.811Z,38.00
2023-03-14T05:08:27.625Z,37.73
2023-03-14T05:10:56.091Z,37.53
2023-03-14T05:13:24.273Z,38.23
2023-03-14T05:15:54.286Z,43.63
2023-03-14T05:18:22.098Z,43.13
2023-03-14T05:20:52.655Z,38.60
2023-03-14T05:23:20.534Z,39.07
2023-03-14T05:25:48.444Z,40.17
2023-03-14T05:28:16.307Z,41.17
2023-03-14T05:30:44.148Z,37.70
2023-03-14T05:33:13.304Z,38.67
2023-03-14T05:35:41.399Z,39.70
2023-03-14T05:38:09.549Z,43.23
2023-03-14T05:40:37.808Z,40.07
2023-03-14T05:43:05.738Z,38.47
2023-03-14T05:45:35.542Z,38.23
2023-03-14T05:48:03.546Z,38.00
2023-03-14T05:50:32.738Z,43.30
2023-03-14T05:53:00.593Z,38.30
2023-03-14T05:55:28.397Z,40.50
2023-03-14T05:57:56.223Z,39.37
2023-03-14T06:00:24.827Z,38.90
2023-03-14T06:02:52.676Z,37.57
2023-03-14T06:05:20.731Z,40.90
2023-03-14T06:07:49.866Z,38.60
2023-03-14T06:10:17.772Z,38.23
2023-03-14T06:12:45.575Z,39.93
2023-03-14T06:15:13.473Z,44.00
2023-03-14T06:17:41.294Z,42.13
2023-03-14T06:20:10.512Z,42.90
2023-03-14T06:22:39.212Z,44.90
2023-03-14T06:25:09.349Z,39.27
2023-03-14T06:27:37.204Z,40.40
2023-03-14T06:30:05.874Z,41.35
2023-03-14T06:32:33.698Z,41.90
2023-03-14T06:35:01.969Z,42.33
2023-03-14T06:37:30.145Z,44.15
2023-03-14T06:39:57.968Z,45.35
2023-03-14T06:42:27.256Z,43.88
2023-03-14T06:44:57.790Z,43.60
2023-03-14T06:47:25.745Z,42.75
2023-03-14T06:49:53.538Z,44.20
2023-03-14T06:52:21.390Z,41.13
2023-03-14T06:54:49.203Z,40.33
2023-03-14T06:57:16.997Z,41.58
2023-03-14T06:59:46.184Z,42.50
2023-03-14T07:02:14.443Z,41.55
2023-03-14T07:04:42.334Z,41.90
2023-03-14T07:07:10.422Z,41.20
2023-03-14T07:09:38.227Z,42.17
2023-03-14T07:12:06.643Z,41.75
2023-03-14T07:14:34.459Z,41.20
2023-03-14T07:17:03.636Z,41.50
2023-03-14T07:19:31.419Z,42.10
2023-03-14T07:21:59.260Z,40.50
2023-03-14T07:24:27.105Z,41.45
2023-03-14T07:29:27.677Z,43.70
2023-03-14T07:31:55.472Z,42.40
2023-03-14T07:34:24.962Z,40.70
2023-03-14T07:36:52.746Z,42.20
2023-03-14T07:39:20.605Z,42.50
2023-03-14T07:41:48.463Z,41.70
2023-03-14T07:44:16.290Z,41.65
2023-03-14T07:46:44.316Z,42.50
2023-03-14T07:49:12.221Z,43.80
2023-03-14T07:51:41.412Z,41.80
2023-03-14T07:54:09.204Z,42.30
2023-03-14T07:56:37.028Z,41.78
2023-03-14T07:59:05.254Z,43.28
2023-03-14T08:01:33.353Z,40.50
2023-03-14T08:04:01.566Z,42.20
2023-03-14T08:06:29.421Z,41.70
2023-03-14T08:08:58.600Z,45.30
2023-03-14T08:11:26.433Z,41.10
2023-03-14T08:13:54.244Z,41.97
2023-03-14T08:16:22.332Z,41.50
2023-03-14T08:18:50.153Z,42.10
2023-03-14T08:21:17.994Z,41.40
2023-03-14T08:23:45.795Z,43.00
2023-03-14T08:26:14.971Z,41.90
2023-03-14T08:28:42.792Z,45.75
2023-03-14T08:31:10.738Z,41.80
2023-03-14T08:33:38.812Z,41.95
2023-03-14T08:36:07.254Z,41.58
2023-03-14T08:38:35.139Z,42.35
2023-03-14T08:41:04.780Z,41.78
2023-03-14T08:43:33.956Z,40.30
2023-03-14T08:46:03.034Z,40.60
2023-03-14T08:48:31.713Z,41.00
2023-03-14T08:51:06.086Z,38.70
2023-03-14T08:53:33.922Z,38.30
2023-03-14T08:56:01.764Z,39.30
2023-03-14T08:58:30.335Z,41.43
2023-03-14T09:00:59.744Z,37.97
2023-03-14T09:03:27.762Z,39.33
2023-03-14T09:05:55.612Z,40.70
2023-03-14T09:08:23.450Z,37.43
2023-03-14T09:10:51.241Z,38.03
2023-03-14T09:13:19.033Z,38.03
2023-03-14T09:15:46.870Z,37.23
2023-03-14T09:18:16.035Z,37.40
2023-03-14T09:20:43.818Z,36.83
2023-03-14T09:23:11.730Z,38.90
2023-03-14T09:25:39.522Z,36.60
2023-03-14T09:28:07.344Z,36.97
2023-03-14T09:30:35.361Z,36.43
2023-03-14T09:33:03.238Z,37.70
2023-03-14T09:35:32.875Z,36.20
2023-03-14T09:38:00.745Z,39.07
2023-03-14T09:40:34.323Z,36.17
2023-03-14T09:43:02.382Z,36.40
2023-03-14T09:45:34.237Z,36.30
2023-03-14T09:48:04.534Z,39.50
2023-03-14T09:50:40.374Z,36.33
2023-03-14T09:53:14.627Z,36.20
2023-03-14T09:55:45.028Z,36.40
2023-03-14T09:58:15.447Z,36.73
2023-03-14T10:00:43.377Z,36.30
2023-03-14T10:03:33.848Z,36.00
2023-03-14T10:06:03.314Z,35.40
2023-03-14T10:08:31.134Z,36.60
2023-03-14T10:11:00.503Z,35.60
2023-03-14T10:13:30.237Z,35.70
2023-03-14T10:16:03.060Z,36.03
2023-03-14T10:18:35.022Z,36.00
2023-03-14T10:21:09.507Z,36.60
2023-03-14T10:23:39.412Z,36.03
2023-03-14T10:26:10.511Z,36.27
2023-03-14T10:28:44.306Z,36.47
2023-03-14T10:31:12.486Z,35.37
2023-03-14T10:33:40.986Z,36.53
2023-03-14T10:36:23.728Z,37.77
2023-03-14T10:38:51.764Z,40.43
2023-03-14T10:41:25.768Z,35.03
2023-03-14T10:43:55.892Z,35.63
2023-03-14T10:46:27.577Z,36.90
2023-03-14T10:48:55.878Z,42.60
2023-03-14T10:51:29.386Z,38.17
2023-03-14T10:54:02.637Z,38.03
2023-03-14T10:56:37.499Z,35.60
2023-03-14T10:59:08.785Z,36.73
2023-03-14T11:01:43.745Z,35.93
2023-03-14T11:04:23.797Z,36.40
2023-03-14T11:07:00.186Z,36.43
2023-03-14T11:09:34.939Z,36.90
2023-03-14T11:12:11.941Z,36.50
2023-03-14T11:14:45.469Z,36.73
2023-03-14T11:17:20.571Z,36.40
2023-03-14T11:20:08.986Z,39.37
2023-03-14T11:22:43.002Z,36.97
2023-03-14T11:25:23.552Z,37.07
2023-03-14T11:28:03.709Z,37.07
2023-03-14T11:30:38.909Z,37.13
2023-03-14T11:33:15.790Z,37.72
2023-03-14T11:35:51.119Z,39.90
2023-03-14T11:38:33.065Z,42.08
2023-03-14T11:41:02.059Z,40.72
2023-03-14T11:43:32.780Z,41.40
2023-03-14T11:46:07.467Z,37.63
2023-03-14T11:48:43.911Z,39.27
2023-03-14T11:51:18.650Z,37.80
2023-03-14T11:53:56.006Z,36.40
2023-03-14T11:56:29.836Z,37.60
2023-03-14T11:59:01.807Z,38.07
2023-03-14T12:01:47.036Z,40.83
2023-03-14T12:04:22.406Z,37.20
2023-03-14T12:06:51.756Z,36.93
2023-03-14T12:09:23.238Z,38.03
2023-03-14T12:11:57.307Z,36.80
2023-03-14T12:14:28.020Z,37.07
2023-03-14T12:16:59.275Z,37.87
2023-03-14T12:19:30.834Z,38.83
2023-03-14T12:22:03.814Z,36.70
2023-03-14T12:24:36.196Z,37.17
2023-03-14T12:27:06.388Z,36.80
2023-03-14T12:29:34.364Z,36.93
2023-03-14T12:32:25.488Z,37.90
2023-03-14T12:34:53.673Z,39.27
2023-03-14T12:37:45.094Z,37.57
2023-03-14T12:40:20.832Z,39.00
2023-03-14T12:42:59.961Z,41.65
2023-03-14T12:45:31.690Z,41.20
2023-03-14T12:48:09.415Z,41.88
2023-03-14T12:50:46.003Z,40.83
2023-03-14T12:53:51.312Z,41.67
2023-03-14T12:56:40.085Z,42.00
2023-03-14T12:59:23.807Z,44.22
2023-03-14T13:01:58.135Z,41.80
2023-03-14T13:04:39.834Z,42.42
2023-03-14T13:07:13.923Z,42.40
2023-03-14T13:10:02.793Z,42.28
2023-03-14T13:12:39.814Z,42.22
2023-03-14T13:15:22.345Z,42.20
2023-03-14T13:17:51.880Z,41.45
2023-03-14T13:20:24.823Z,42.20
2023-03-14T13:22:52.677Z,43.60
2023-03-14T13:25:22.061Z,43.40
2023-03-14T13:27:56.600Z,42.95
2023-03-14T13:30:27.589Z,44.45
2023-03-14T13:32:57.068Z,42.50
2023-03-14T13:35:30.872Z,43.40
2023-03-14T13:38:11.222Z,42.70
2023-03-14T13:40:40.886Z,42.65
2023-03-14T13:43:17.952Z,43.00
2023-03-14T13:45:50.052Z,43.40
2023-03-14T13:48:18.851Z,42.77
2023-03-14T13:50:55.559Z,43.00
2023-03-14T13:53:25.483Z,43.40
2023-03-14T13:55:54.407Z,43.10
2023-03-14T13:58:27.048Z,43.30
2023-03-14T14:01:07.072Z,43.30
2023-03-14T14:03:38.771Z,42.65
2023-03-14T14:06:10.789Z,42.50
2023-03-14T14:08:42.838Z,42.20
2023-03-14T14:11:18.669Z,41.70
2023-03-14T14:13:48.217Z,42.13
2023-03-14T14:16:20.658Z,42.55
2023-03-14T14:18:48.637Z,42.60
2023-03-14T14:21:16.787Z,42.50
2023-03-14T14:23:45.412Z,42.80
2023-03-14T14:26:18.592Z,42.95
2023-03-14T14:28:50.286Z,43.53
2023-03-14T14:31:25.218Z,43.17
2023-03-14T14:33:57.791Z,42.80
2023-03-14T14:36:29.215Z,42.10
2023-03-14T14:39:00.737Z,44.40
2023-03-14T14:41:33.464Z,42.58
2023-03-14T14:44:05.446Z,42.63
2023-03-14T14:46:35.811Z,42.33
2023-03-14T14:49:11.890Z,43.88
2023-03-14T14:51:44.245Z,43.17
2023-03-14T14:54:15.926Z,42.03
2023-03-14T14:56:49.026Z,42.50
2023-03-14T14:59:24.382Z,42.90
2023-03-14T15:01:56.874Z,41.70
2023-03-14T15:04:24.785Z,44.40
2023-03-14T15:06:53.484Z,43.00
2023-03-14T15:09:21.823Z,44.25
2023-03-14T15:11:50.375Z,43.63
2023-03-14T15:14:18.224Z,42.65
2023-03-14T15:16:47.654Z,42.10
2023-03-14T15:19:25.278Z,44.83
2023-03-14T15:21:54.116Z,43.00
2023-03-14T15:24:22.023Z,43.22
2023-03-14T15:26:49.889Z,42.63
2023-03-14T15:29:17.965Z,43.95
2023-03-14T15:31:47.213Z,43.58
2023-03-14T15:34:15.786Z,42.97
2023-03-14T15:36:43.663Z,42.55
2023-03-14T15:39:13.006Z,45.08
2023-03-14T15:41:40.825Z,42.65
2023-03-14T15:44:08.670Z,43.07
2023-03-14T15:46:36.708Z,43.47
2023-03-14T15:49:05.867Z,42.30
2023-03-14T15:51:34.173Z,43.40
2023-03-14T15:54:02.063Z,43.40
2023-03-14T15:56:31.865Z,43.00
2023-03-14T15:58:59.984Z,43.10
2023-03-14T16:01:27.996Z,42.00
2023-03-14T16:03:56.651Z,43.40
2023-03-14T16:06:25.899Z,42.88
2023-03-14T16:08:53.731Z,42.30
2023-03-14T16:11:22.900Z,42.67
2023-03-14T16:13:51.128Z,42.80
2023-03-14T16:16:19.191Z,43.00
2023-03-14T16:18:47.169Z,43.38
2023-03-14T16:21:17.900Z,41.67
2023-03-14T16:23:47.397Z,41.60
2023-03-14T16:26:17.147Z,42.00
2023-03-14T16:28:45.420Z,41.97
2023-03-14T16:31:16.209Z,42.00
2023-03-14T16:33:44.886Z,41.80
2023-03-14T16:36:14.425Z,42.67
2023-03-14T16:38:44.267Z,43.58
2023-03-14T16:41:15.225Z,41.00
2023-03-14T16:43:43.837Z,41.20
2023-03-14T16:46:16.719Z,42.15
2023-03-14T16:48:45.296Z,41.80
2023-03-14T16:51:14.049Z,42.38
2023-03-14T16:53:41.914Z,41.70
2023-03-14T16:56:10.815Z,42.00
2023-03-14T16:58:40.597Z,40.50
2023-03-14T17:01:11.378Z,43.90
2023-03-14T17:03:40.921Z,41.50
2023-03-14T17:06:09.401Z,40.30
2023-03-14T17:08:37.332Z,41.60
2023-03-14T17:11:05.276Z,42.15
2023-03-14T17:13:33.065Z,41.72
2023-03-14T17:16:03.233Z,40.45
2023-03-14T17:18:32.481Z,40.55
2023-03-14T17:21:01.134Z,42.10
2023-03-14T17:23:31.071Z,40.50
2023-03-14T17:25:59.194Z,41.10
2023-03-14T17:28:28.152Z,41.63
2023-03-14T17:31:08.829Z,39.53
2023-03-14T17:33:37.231Z,41.28
2023-03-14T17:36:06.368Z,39.60
2023-03-14T17:38:35.829Z,40.33
2023-03-14T17:41:03.757Z,39.90
2023-03-14T17:43:32.270Z,39.90
2023-03-14T17:46:01.109Z,39.40
2023-03-14T17:48:30.380Z,41.28
2023-03-14T17:51:01.873Z,41.70
2023-03-14T17:53:30.406Z,41.73
2023-03-14T17:55:58.633Z,41.45
2023-03-14T17:58:27.141Z,41.22
2023-03-14T18:00:55.167Z,40.42
2023-03-14T18:03:23.397Z,41.05
2023-03-14T18:05:52.545Z,41.27
2023-03-14T18:08:20.313Z,40.50
2023-03-14T18:10:48.128Z,41.10
2023-03-14T18:13:15.980Z,40.42
2023-03-14T18:15:44.120Z,40.20
2023-03-14T18:18:11.937Z,41.10
2023-03-14T18:20:39.813Z,40.42
2023-03-14T18:23:09.115Z,41.17
2023-03-14T18:25:36.976Z,41.33
2023-03-14T18:28:04.834Z,41.38
2023-03-14T18:30:32.709Z,41.10
2023-03-14T18:33:00.998Z,41.33
2023-03-14T18:35:28.875Z,40.63
2023-03-14T18:37:56.678Z,41.10
2023-03-14T18:40:25.908Z,42.05
2023-03-14T18:42:53.702Z,41.17
2023-03-14T18:45:21.542Z,40.00
2023-03-14T18:47:49.358Z,40.70
2023-03-14T18:50:17.333Z,40.67
2023-03-14T18:52:45.129Z,39.20
2023-03-14T18:55:12.961Z,40.28
2023-03-14T18:57:42.110Z,38.23
2023-03-14T19:00:12.660Z,40.90
2023-03-14T19:02:40.879Z,40.22
2023-03-14T19:05:09.573Z,38.60
2023-03-14T19:07:37.409Z,40.90
2023-03-14T19:10:06.295Z,42.00
2023-03-14T19:12:34.186Z,38.80
2023-03-14T19:15:03.637Z,38.40
2023-03-14T19:17:31.488Z,39.38
2023-03-14T19:19:59.313Z,41.60
2023-03-14T19:22:27.139Z,40.07
2023-03-14T19:24:55.871Z,39.25
2023-03-14T19:27:23.770Z,40.80
2023-03-14T19:29:52.027Z,39.42
2023-03-14T19:32:21.874Z,38.60
2023-03-14T19:34:49.763Z,39.65
2023-03-14T19:37:17.645Z,40.80
2023-03-14T19:39:46.805Z,39.75
2023-03-14T19:42:15.002Z,38.20
2023-03-14T19:44:42.790Z,39.90
2023-03-14T19:47:10.706Z,40.30
2023-03-14T19:49:39.985Z,41.00
2023-03-14T19:52:08.959Z,39.10
2023-03-14T19:54:37.031Z,40.50
2023-03-14T19:57:05.817Z,41.10
2023-03-14T19:59:33.696Z,41.03
2023-03-14T20:02:01.837Z,46.00
2023-03-14T20:04:29.734Z,41.90
2023-03-14T20:06:59.013Z,40.03
2023-03-14T20:09:27.548Z,41.15
2023-03-14T20:11:55.376Z,40.00
2023-03-14T20:14:23.227Z,38.40
2023-03-14T20:16:51.133Z,39.70
2023-03-14T20:19:20.066Z,37.70
2023-03-14T20:21:47.900Z,38.80
2023-03-14T20:24:17.192Z,38.70
2023-03-14T20:26:45.271Z,39.20
2023-03-14T20:29:15.264Z,42.17
2023-03-14T20:31:43.382Z,39.78
2023-03-14T20:34:11.260Z,39.50
2023-03-14T20:36:39.275Z,38.43
2023-03-14T20:39:07.257Z,39.50
2023-03-14T20:41:41.842Z,37.60
2023-03-14T20:44:11.242Z,37.27
2023-03-14T20:46:39.311Z,38.77
2023-03-14T20:49:07.376Z,37.73
2023-03-14T20:51:35.283Z,39.70
2023-03-14T20:54:03.134Z,39.38
2023-03-14T20:56:30.982Z,39.88
2023-03-14T20:59:00.217Z,38.57
2023-03-14T21:01:28.145Z,39.30
2023-03-14T21:03:56.089Z,38.20
2023-03-14T21:06:24.011Z,37.83
2023-03-14T21:08:51.896Z,38.63
2023-03-14T21:11:19.843Z,37.30
2023-03-14T21:13:47.712Z,38.78
2023-03-14T21:16:18.444Z,36.77
2023-03-14T21:18:46.320Z,40.78
2023-03-14T21:21:14.450Z,38.30
2023-03-14T21:23:42.309Z,38.53
2023-03-14T21:26:10.202Z,37.07
2023-03-14T21:28:38.153Z,38.63
2023-03-14T21:31:07.225Z,39.28
2023-03-14T21:33:36.610Z,37.50
2023-03-14T21:36:04.900Z,39.00
2023-03-14T21:38:33.158Z,37.40
2023-03-14T21:41:01.356Z,36.90
2023-03-14T21:43:29.976Z,37.23
2023-03-14T21:45:57.824Z,37.10
2023-03-14T21:48:26.533Z,39.50
2023-03-14T21:50:56.300Z,39.47
2023-03-14T21:53:30.294Z,39.92
2023-03-14T21:55:58.707Z,41.10
2023-03-14T21:58:26.629Z,41.67
2023-03-14T22:00:55.344Z,38.60
2023-03-14T22:03:23.774Z,39.17
2023-03-14T22:05:51.719Z,38.23
2023-03-14T22:08:22.569Z,38.40
2023-03-14T22:10:52.636Z,39.30
2023-03-14T22:13:21.335Z,39.33
2023-03-14T22:15:50.611Z,38.47
2023-03-14T22:18:19.522Z,39.20
2023-03-14T22:20:47.854Z,39.55
2023-03-14T22:23:16.080Z,39.83
2023-03-14T22:25:49.217Z,38.30
2023-03-14T22:28:18.593Z,39.75
2023-03-14T22:30:47.798Z,39.00
2023-03-14T22:33:15.893Z,37.50
2023-03-14T22:35:43.853Z,37.80
2023-03-14T22:38:11.720Z,36.77
2023-03-14T22:40:39.750Z,37.85
2023-03-14T22:43:09.017Z,38.58
2023-03-14T22:45:37.211Z,38.50
2023-03-14T22:48:05.693Z,38.88
2023-03-14T22:50:33.541Z,38.20
2023-03-14T22:53:02.020Z,39.70
2023-03-14T22:55:29.899Z,39.88
2023-03-14T22:57:58.955Z,39.50
2023-03-14T23:00:29.290Z,41.17
2023-03-14T23:02:57.275Z,39.57
2023-03-14T23:05:25.291Z,40.40
2023-03-14T23:07:53.491Z,40.20
2023-03-14T23:10:21.725Z,37.70
2023-03-14T23:12:49.870Z,39.80
2023-03-14T23:15:17.819Z,38.92
2023-03-14T23:17:47.070Z,40.33
2023-03-14T23:20:14.983Z,39.15
2023-03-14T23:22:42.915Z,38.70
2023-03-14T23:25:12.040Z,37.73
2023-03-14T23:27:39.965Z,37.60
2023-03-14T23:30:08.968Z,39.08
2023-03-14T23:32:36.823Z,39.10
2023-03-14T23:35:06.606Z,37.60
2023-03-14T23:37:34.562Z,38.78
2023-03-14T23:40:02.811Z,39.80
2023-03-14T23:42:31.437Z,37.83
2023-03-14T23:44:59.324Z,38.90
2023-03-14T23:47:27.247Z,38.10
2023-03-14T23:49:55.391Z,38.85
2023-03-14T23:52:24.658Z,39.70
2023-03-14T23:54:52.549Z,37.33
2023-03-14T23:57:20.565Z,37.70
2023-03-14T23:59:48.436Z,37.70
